createdAt,value
2022-11-15T00:01:44.608Z,7.90
2022-11-15T00:04:32.982Z,7.77
2022-11-15T00:07:48.291Z,7.50
2022-11-15T00:10:31.163Z,7.30
2022-11-15T00:13:20.742Z,7.70
2022-11-15T00:16:10.918Z,7.60
2022-11-15T00:19:01.961Z,7.27
2022-11-15T00:21:50.238Z,7.30
2022-11-15T00:24:39.769Z,8.70
2022-11-15T00:27:28.937Z,8.60
2022-11-15T00:30:17.476Z,7.60
2022-11-15T00:33:07.573Z,7.20
2022-11-15T00:36:03.494Z,6.60
2022-11-15T00:38:52.104Z,7.10
2022-11-15T00:41:40.626Z,7.23
2022-11-15T00:44:28.597Z,6.80
2022-11-15T00:47:16.855Z,6.40
2022-11-15T00:50:04.974Z,6.67
2022-11-15T00:52:56.136Z,8.07
2022-11-15T00:55:44.517Z,7.23
2022-11-15T00:58:32.846Z,7.07
2022-11-15T01:01:21.097Z,6.80
2022-11-15T01:04:09.822Z,7.50
2022-11-15T01:06:58.327Z,6.83
2022-11-15T01:09:49.233Z,7.23
2022-11-15T01:12:37.696Z,7.70
2022-11-15T01:15:25.823Z,7.50
2022-11-15T01:18:14.080Z,7.80
2022-11-15T01:21:02.482Z,7.07
2022-11-15T01:23:50.805Z,7.20
2022-11-15T01:26:41.534Z,7.30
2022-11-15T01:29:29.699Z,7.27
2022-11-15T01:32:18.019Z,6.80
2022-11-15T01:35:06.787Z,7.97
2022-11-15T01:37:55.301Z,8.50
2022-11-15T01:40:43.393Z,7.27
2022-11-15T01:43:36.604Z,7.93
2022-11-15T01:46:33.019Z,7.90
2022-11-15T01:49:24.663Z,7.53
2022-11-15T01:52:17.149Z,9.10
2022-11-15T01:55:09.272Z,8.53
2022-11-15T01:58:00.727Z,7.93
2022-11-15T02:00:53.433Z,9.17
2022-11-15T02:03:50.552Z,8.60
2022-11-15T02:06:40.126Z,8.90
2022-11-15T02:09:28.306Z,9.33
2022-11-15T02:12:20.241Z,8.33
2022-11-15T02:15:11.754Z,10.67
2022-11-15T02:18:15.101Z,8.17
2022-11-15T02:21:16.859Z,9.30
2022-11-15T02:24:28.554Z,9.20
2022-11-15T02:27:41.910Z,10.03
2022-11-15T02:30:41.776Z,9.13
2022-11-15T02:33:40.344Z,10.80
2022-11-15T02:36:40.037Z,10.00
2022-11-15T02:39:36.490Z,9.77
2022-11-15T02:42:42.161Z,9.50
2022-11-15T02:45:39.443Z,9.83
2022-11-15T02:48:29.686Z,10.17
2022-11-15T02:51:19.986Z,10.90
2022-11-15T02:54:08.481Z,10.27
2022-11-15T02:56:59.763Z,9.97
2022-11-15T03:00:08.571Z,10.30
2022-11-15T03:03:25.046Z,9.90
2022-11-15T03:06:24.287Z,11.23
2022-11-15T03:09:20.811Z,10.70
2022-11-15T03:12:17.248Z,10.17
2022-11-15T03:15:10.416Z,10.77
2022-11-15T03:18:06.060Z,11.10
2022-11-15T03:20:55.019Z,10.83
2022-11-15T03:23:44.713Z,10.47
2022-11-15T03:26:33.827Z,10.17
2022-11-15T03:29:26.633Z,10.53
2022-11-15T03:32:20.153Z,10.40
2022-11-15T03:35:15.873Z,10.67
2022-11-15T03:38:14.853Z,11.20
2022-11-15T03:41:05.180Z,10.50
2022-11-15T03:44:00.618Z,10.90
2022-11-15T03:46:55.810Z,11.33
2022-11-15T03:49:48.509Z,11.87
2022-11-15T03:52:39.678Z,10.40
2022-11-15T03:55:28.221Z,11.33
2022-11-15T03:58:16.450Z,10.20
2022-11-15T04:01:05.897Z,10.63
2022-11-15T04:03:54.337Z,9.70
2022-11-15T04:06:42.402Z,11.60
2022-11-15T04:09:33.577Z,10.63
2022-11-15T04:12:31.676Z,10.57
2022-11-15T04:15:22.286Z,9.60
2022-11-15T04:18:10.758Z,10.10
2022-11-15T04:21:11.635Z,10.77
2022-11-15T04:24:12.203Z,9.90
2022-11-15T04:27:03.184Z,10.37
2022-11-15T04:29:51.645Z,9.10
2022-11-15T04:32:40.259Z,10.53
2022-11-15T04:35:28.662Z,9.33
2022-11-15T04:38:16.749Z,10.30
2022-11-15T04:41:05.377Z,10.43
2022-11-15T04:43:56.245Z,8.80
2022-11-15T04:46:44.494Z,10.17
2022-11-15T04:49:32.997Z,8.90
2022-11-15T04:52:21.193Z,8.80
2022-11-15T04:55:10.462Z,9.50
2022-11-15T04:58:03.259Z,10.30
2022-11-15T05:00:53.910Z,9.47
2022-11-15T05:03:54.751Z,9.30
2022-11-15T05:06:43.066Z,9.20
2022-11-15T05:09:31.045Z,9.43
2022-11-15T05:12:19.157Z,9.23
2022-11-15T05:15:08.836Z,7.97
2022-11-15T05:18:03.793Z,8.90
2022-11-15T05:20:52.325Z,8.97
2022-11-15T05:23:40.621Z,9.77
2022-11-15T05:26:29.335Z,9.30
2022-11-15T05:29:17.732Z,8.20
2022-11-15T05:32:09.108Z,8.80
2022-11-15T05:35:00.189Z,8.00
2022-11-15T05:37:48.719Z,7.60
2022-11-15T05:40:38.188Z,8.13
2022-11-15T05:43:27.810Z,8.03
2022-11-15T05:46:17.270Z,7.90
2022-11-15T05:49:05.688Z,8.77
2022-11-15T05:51:57.651Z,7.50
2022-11-15T05:54:46.691Z,7.70
2022-11-15T05:57:35.005Z,8.03
2022-11-15T06:00:23.417Z,7.00
2022-11-15T06:03:11.617Z,7.60
2022-11-15T06:06:00.713Z,6.40
2022-11-15T06:08:51.566Z,7.60
2022-11-15T06:11:40.066Z,8.00
2022-11-15T06:14:29.640Z,7.20
2022-11-15T06:17:17.899Z,7.00
2022-11-15T06:20:06.529Z,6.93
2022-11-15T06:22:54.788Z,6.10
2022-11-15T06:25:45.576Z,7.10
2022-11-15T06:28:36.509Z,6.53
2022-11-15T06:31:27.283Z,7.40
2022-11-15T06:34:16.417Z,7.90
2022-11-15T06:37:06.638Z,7.37
2022-11-15T06:39:55.700Z,8.27
2022-11-15T06:42:47.583Z,6.70
2022-11-15T06:45:36.125Z,7.60
2022-11-15T06:48:25.488Z,7.50
2022-11-15T06:51:16.109Z,6.67
2022-11-15T06:54:05.770Z,6.80
2022-11-15T06:56:55.942Z,7.40
2022-11-15T06:59:48.042Z,7.17
2022-11-15T07:02:37.553Z,7.10
2022-11-15T07:05:30.694Z,7.53
2022-11-15T07:08:20.079Z,8.03
2022-11-15T07:11:10.869Z,7.37
2022-11-15T07:14:01.317Z,7.07
2022-11-15T07:16:53.068Z,8.17
2022-11-15T07:19:41.295Z,7.80
2022-11-15T07:22:30.103Z,6.50
2022-11-15T07:25:20.372Z,6.53
2022-11-15T07:28:09.746Z,6.37
2022-11-15T07:30:59.856Z,6.70
2022-11-15T07:33:52.671Z,6.07
2022-11-15T07:36:43.536Z,5.93
2022-11-15T07:39:33.489Z,5.50
2022-11-15T07:42:35.471Z,5.03
2022-11-15T07:45:26.802Z,4.90
2022-11-15T07:48:16.013Z,5.30
2022-11-15T07:51:13.758Z,5.97
2022-11-15T07:54:04.620Z,6.60
2022-11-15T07:56:53.921Z,5.10
2022-11-15T07:59:47.102Z,5.63
2022-11-15T08:02:36.522Z,4.63
2022-11-15T08:05:26.950Z,4.87
2022-11-15T08:08:18.735Z,4.30
2022-11-15T08:11:09.141Z,4.27
2022-11-15T08:13:58.446Z,4.70
2022-11-15T08:16:47.630Z,4.03
2022-11-15T08:19:35.922Z,4.90
2022-11-15T08:22:24.371Z,4.30
2022-11-15T08:25:15.188Z,4.07
2022-11-15T08:28:06.756Z,4.13
2022-11-15T08:30:55.272Z,4.23
2022-11-15T08:33:45.123Z,4.10
2022-11-15T08:36:44.657Z,3.73
2022-11-15T08:39:35.909Z,4.40
2022-11-15T08:42:28.425Z,3.63
2022-11-15T08:45:19.452Z,3.70
2022-11-15T08:48:08.552Z,4.50
2022-11-15T08:50:58.147Z,4.30
2022-11-15T08:53:47.538Z,3.87
2022-11-15T08:56:36.808Z,3.73
2022-11-15T08:59:28.662Z,4.50
2022-11-15T09:02:18.758Z,3.40
2022-11-15T09:05:08.157Z,4.07
2022-11-15T09:07:57.113Z,4.00
2022-11-15T09:10:46.409Z,3.60
2022-11-15T09:13:35.864Z,3.50
2022-11-15T09:16:31.766Z,3.53
2022-11-15T09:19:21.145Z,4.03
2022-11-15T09:22:11.976Z,3.20
2022-11-15T09:25:00.450Z,3.40
2022-11-15T09:27:49.874Z,3.77
2022-11-15T09:30:39.103Z,3.43
2022-11-15T09:33:32.068Z,3.90
2022-11-15T09:36:20.584Z,3.17
2022-11-15T09:39:08.921Z,3.27
2022-11-15T09:42:21.853Z,3.60
2022-11-15T09:45:21.237Z,3.50
2022-11-15T09:48:28.549Z,3.60
2022-11-15T09:51:20.245Z,3.00
2022-11-15T09:56:48.946Z,4.10
2022-11-15T09:59:43.087Z,3.60
2022-11-15T10:02:27.682Z,2.80
2022-11-15T10:04:58.051Z,3.07
2022-11-15T10:07:38.160Z,3.13
2022-11-15T10:10:21.014Z,3.00
2022-11-15T10:12:54.527Z,3.00
2022-11-15T10:15:25.035Z,3.23
2022-11-15T10:18:12.486Z,3.00
2022-11-15T10:20:49.975Z,2.83
2022-11-15T10:23:25.657Z,2.90
2022-11-15T10:26:02.395Z,3.30
2022-11-15T10:28:37.311Z,2.77
2022-11-15T10:31:26.021Z,2.00
2022-11-15T10:34:14.293Z,2.40
2022-11-15T10:36:50.419Z,2.40
2022-11-15T10:39:24.025Z,2.10
2022-11-15T10:41:55.470Z,2.30
2022-11-15T10:44:28.894Z,2.77
2022-11-15T10:47:26.063Z,2.67
2022-11-15T10:50:04.480Z,2.17
2022-11-15T10:52:36.542Z,2.53
2022-11-15T10:55:26.616Z,1.97
2022-11-15T10:57:59.841Z,2.13
2022-11-15T11:00:34.844Z,2.10
2022-11-15T11:03:08.159Z,1.67
2022-11-15T11:05:42.237Z,2.07
2022-11-15T11:08:27.067Z,1.93
2022-11-15T11:11:03.486Z,1.97
2022-11-15T11:13:35.320Z,2.30
2022-11-15T11:16:25.678Z,2.10
2022-11-15T11:19:05.639Z,2.07
2022-11-15T11:21:47.441Z,1.63
2022-11-15T11:24:26.803Z,2.20
2022-11-15T11:27:17.110Z,1.90
2022-11-15T11:29:58.996Z,2.17
2022-11-15T11:32:41.111Z,2.20
2022-11-15T11:35:17.829Z,2.40
2022-11-15T11:37:53.679Z,2.33
2022-11-15T11:40:38.402Z,2.27
2022-11-15T11:43:22.636Z,2.43
2022-11-15T11:46:08.909Z,1.90
2022-11-15T11:48:45.713Z,1.80
2022-11-15T11:51:22.023Z,1.80
2022-11-15T11:53:58.073Z,2.50
2022-11-15T11:56:32.409Z,2.00
2022-11-15T11:59:13.944Z,2.07
2022-11-15T12:01:46.956Z,1.60
2022-11-15T12:04:22.881Z,1.57
2022-11-15T12:06:57.176Z,1.90
2022-11-15T12:09:34.622Z,1.90
2022-11-15T12:12:12.946Z,2.03
2022-11-15T12:14:50.970Z,1.70
2022-11-15T12:17:26.548Z,1.83
2022-11-15T12:20:01.189Z,1.90
2022-11-15T12:22:41.696Z,1.47
2022-11-15T12:25:20.772Z,2.17
2022-11-15T12:27:58.174Z,1.87
2022-11-15T12:30:51.273Z,1.63
2022-11-15T12:33:37.774Z,2.30
2022-11-15T12:36:12.637Z,2.10
2022-11-15T12:38:58.661Z,2.00
2022-11-15T12:41:31.088Z,1.80
2022-11-15T12:44:01.915Z,1.97
2022-11-15T12:47:07.141Z,2.07
2022-11-15T12:49:50.844Z,2.43
2022-11-15T12:52:23.539Z,2.20
2022-11-15T12:55:32.990Z,2.37
2022-11-15T12:58:30.709Z,1.87
2022-11-15T13:01:00.858Z,1.90
2022-11-15T13:03:33.851Z,2.27
2022-11-15T13:06:43.062Z,2.00
2022-11-15T13:09:52.243Z,1.70
2022-11-15T13:12:53.302Z,2.20
2022-11-15T13:15:42.903Z,2.17
2022-11-15T13:18:39.981Z,1.63
2022-11-15T13:21:38.010Z,1.90
2022-11-15T13:24:18.182Z,2.30
2022-11-15T13:26:49.384Z,1.80
2022-11-15T13:29:24.480Z,2.53
2022-11-15T13:31:56.669Z,2.17
2022-11-15T13:37:35.452Z,2.10
2022-11-15T13:40:31.250Z,2.40
2022-11-15T13:43:02.265Z,1.77
2022-11-15T13:45:33.106Z,1.97
2022-11-15T13:48:08.123Z,2.63
2022-11-15T13:50:43.449Z,2.27
2022-11-15T13:53:13.801Z,2.20
2022-11-15T13:55:45.541Z,2.00
2022-11-15T13:58:17.852Z,2.17
2022-11-15T14:00:51.278Z,2.37
2022-11-15T14:03:23.635Z,2.67
2022-11-15T14:06:12.908Z,2.43
2022-11-15T14:08:44.321Z,2.43
2022-11-15T14:11:19.442Z,1.70
2022-11-15T14:14:14.709Z,2.00
2022-11-15T14:16:46.556Z,2.57
2022-11-15T14:19:37.386Z,2.30
2022-11-15T14:22:18.971Z,2.40
2022-11-15T14:25:07.951Z,2.20
2022-11-15T14:27:40.034Z,2.60
2022-11-15T14:30:16.109Z,2.23
2022-11-15T14:32:49.080Z,2.20
2022-11-15T14:35:21.056Z,1.90
2022-11-15T14:37:53.539Z,8.30
2022-11-15T14:40:26.682Z,3.27
2022-11-15T14:42:56.658Z,2.03
2022-11-15T14:45:27.520Z,2.60
2022-11-15T14:47:57.433Z,2.50
2022-11-15T14:50:28.798Z,2.07
2022-11-15T14:53:02.308Z,2.50
2022-11-15T14:55:36.963Z,2.73
2022-11-15T14:58:10.738Z,2.60
2022-11-15T15:00:44.046Z,2.80
2022-11-15T15:03:14.859Z,2.57
2022-11-15T15:05:47.475Z,2.17
2022-11-15T15:08:19.891Z,3.00
2022-11-15T15:10:50.667Z,2.67
2022-11-15T15:13:22.594Z,2.63
2022-11-15T15:15:55.129Z,2.43
2022-11-15T15:18:26.088Z,2.87
2022-11-15T15:21:03.541Z,2.37
2022-11-15T15:23:37.346Z,2.93
2022-11-15T15:26:09.308Z,4.43
2022-11-15T15:28:40.821Z,3.27
2022-11-15T15:31:12.213Z,2.53
2022-11-15T15:33:43.122Z,2.27
2022-11-15T15:36:15.780Z,3.20
2022-11-15T15:38:48.343Z,3.00
2022-11-15T15:41:20.463Z,3.50
2022-11-15T15:43:51.246Z,2.27
2022-11-15T15:46:22.588Z,2.90
2022-11-15T15:48:54.474Z,2.50
2022-11-15T15:51:26.348Z,3.17
2022-11-15T15:54:00.026Z,2.60
2022-11-15T15:56:29.833Z,2.70
2022-11-15T15:59:00.697Z,3.07
2022-11-15T16:01:32.564Z,4.53
2022-11-15T16:04:02.557Z,3.03
2022-11-15T16:06:40.178Z,7.83
2022-11-15T16:09:17.677Z,4.60
2022-11-15T16:11:49.020Z,3.37
2022-11-15T16:14:19.829Z,18.80
2022-11-15T16:16:49.713Z,6.38
2022-11-15T16:19:20.573Z,4.60
2022-11-15T16:21:50.379Z,4.83
2022-11-15T16:24:22.935Z,5.37
2022-11-15T16:26:55.203Z,4.50
2022-11-15T16:29:27.106Z,3.63
2022-11-15T16:31:57.908Z,3.50
2022-11-15T16:34:31.122Z,3.50
2022-11-15T16:37:03.274Z,3.37
2022-11-15T16:39:35.890Z,5.50
2022-11-15T16:42:09.198Z,5.30
2022-11-15T16:44:39.085Z,4.87
2022-11-15T16:47:20.196Z,3.70
2022-11-15T16:49:50.152Z,5.13
2022-11-15T16:52:21.510Z,3.83
2022-11-15T16:54:55.276Z,3.67
2022-11-15T16:57:25.140Z,3.30
2022-11-15T16:59:57.270Z,3.30
2022-11-15T17:02:28.249Z,3.07
2022-11-15T17:05:01.619Z,3.10
2022-11-15T17:07:34.251Z,3.17
2022-11-15T17:10:13.978Z,3.10
2022-11-15T17:12:43.989Z,3.83
2022-11-15T17:15:15.607Z,3.27
2022-11-15T17:17:46.151Z,3.40
2022-11-15T17:20:20.112Z,3.37
2022-11-15T17:22:50.962Z,3.90
2022-11-15T17:25:23.586Z,4.40
2022-11-15T17:27:53.668Z,3.50
2022-11-15T17:30:24.603Z,4.40
2022-11-15T17:32:56.833Z,4.63
2022-11-15T17:35:26.654Z,3.53
2022-11-15T17:37:57.613Z,3.30
2022-11-15T17:40:31.019Z,4.23
2022-11-15T17:43:04.282Z,3.00
2022-11-15T17:45:37.582Z,3.07
2022-11-15T17:48:07.677Z,3.63
2022-11-15T17:50:37.524Z,3.20
2022-11-15T17:53:07.425Z,3.07
2022-11-15T17:55:43.781Z,3.23
2022-11-15T17:58:18.650Z,3.17
2022-11-15T18:00:49.238Z,3.67
2022-11-15T18:03:20.514Z,3.40
2022-11-15T18:05:50.406Z,3.73
2022-11-15T18:08:24.214Z,3.43
2022-11-15T18:11:04.993Z,3.20
2022-11-15T18:13:35.977Z,4.20
2022-11-15T18:16:08.159Z,3.10
2022-11-15T18:18:40.281Z,3.80
2022-11-15T18:21:14.951Z,3.67
2022-11-15T18:23:46.883Z,3.40
2022-11-15T18:26:26.616Z,4.10
2022-11-15T18:28:59.538Z,3.87
2022-11-15T18:31:31.722Z,3.93
2022-11-15T18:34:06.009Z,3.87
2022-11-15T18:36:40.092Z,3.50
2022-11-15T18:39:16.436Z,3.80
2022-11-15T18:41:49.367Z,3.30
2022-11-15T18:44:20.616Z,3.57
2022-11-15T18:46:51.036Z,3.37
2022-11-15T18:49:22.633Z,3.00
2022-11-15T18:51:52.513Z,3.00
2022-11-15T18:54:26.775Z,3.17
2022-11-15T18:57:07.104Z,3.20
2022-11-15T18:59:37.993Z,3.87
2022-11-15T19:02:12.140Z,3.20
2022-11-15T19:04:43.046Z,3.00
2022-11-15T19:07:13.185Z,3.03
2022-11-15T19:09:43.043Z,3.27
2022-11-15T19:12:15.563Z,2.83
2022-11-15T19:14:45.480Z,2.70
2022-11-15T19:17:15.245Z,2.80
2022-11-15T19:19:45.199Z,2.40
2022-11-15T19:22:23.069Z,2.97
2022-11-15T19:24:56.169Z,3.40
2022-11-15T19:27:33.031Z,3.20
2022-11-15T19:30:08.765Z,2.70
2022-11-15T19:32:42.320Z,2.20
2022-11-15T19:35:13.125Z,2.63
2022-11-15T19:37:43.979Z,2.73
2022-11-15T19:40:14.092Z,2.80
2022-11-15T19:42:47.618Z,3.10
2022-11-15T19:45:18.742Z,3.10
2022-11-15T19:47:48.833Z,3.30
2022-11-15T19:50:19.409Z,3.63
2022-11-15T19:52:49.436Z,3.40
2022-11-15T19:55:20.516Z,3.37
2022-11-15T19:57:54.214Z,3.03
2022-11-15T20:00:24.498Z,3.13
2022-11-15T20:02:54.430Z,2.43
2022-11-15T20:05:24.955Z,3.20
2022-11-15T20:07:58.170Z,3.07
2022-11-15T20:10:33.000Z,2.50
2022-11-15T20:13:09.352Z,2.53
2022-11-15T20:15:41.244Z,2.80
2022-11-15T20:18:14.252Z,2.43
2022-11-15T20:20:45.236Z,2.40
2022-11-15T20:23:16.093Z,2.80
2022-11-15T20:25:50.748Z,3.13
2022-11-15T20:28:31.026Z,2.80
2022-11-15T20:31:04.830Z,2.40
2022-11-15T20:33:35.844Z,2.80
2022-11-15T20:36:08.026Z,2.40
2022-11-15T20:38:40.375Z,3.00
2022-11-15T20:41:13.970Z,2.13
2022-11-15T20:43:48.401Z,2.37
2022-11-15T20:46:20.175Z,2.03
2022-11-15T20:48:51.144Z,2.43
2022-11-15T20:51:23.501Z,2.20
2022-11-15T20:53:54.651Z,2.37
2022-11-15T20:56:25.420Z,2.40
2022-11-15T20:59:02.812Z,2.50
2022-11-15T21:01:33.957Z,2.50
2022-11-15T21:04:05.144Z,2.80
2022-11-15T21:06:36.080Z,2.80
2022-11-15T21:09:21.889Z,2.67
2022-11-15T21:12:04.850Z,2.63
2022-11-15T21:14:44.018Z,2.80
2022-11-15T21:17:15.836Z,2.80
2022-11-15T21:19:47.316Z,2.30
2022-11-15T21:22:18.071Z,2.77
2022-11-15T21:24:47.950Z,2.30
2022-11-15T21:27:19.314Z,2.97
2022-11-15T21:29:51.758Z,4.40
2022-11-15T21:32:21.577Z,2.30
2022-11-15T21:34:51.483Z,2.70
2022-11-15T21:37:21.277Z,2.97
2022-11-15T21:39:52.117Z,2.53
2022-11-15T21:42:23.147Z,2.63
2022-11-15T21:44:56.567Z,2.20
2022-11-15T21:47:27.374Z,2.50
2022-11-15T21:49:58.274Z,2.40
2022-11-15T21:52:28.044Z,2.50
2022-11-15T21:54:58.943Z,3.47
2022-11-15T21:57:30.247Z,2.90
2022-11-15T22:00:16.156Z,2.77
2022-11-15T22:02:46.936Z,2.40
2022-11-15T22:05:17.108Z,2.20
2022-11-15T22:07:49.036Z,2.67
2022-11-15T22:10:21.363Z,2.03
2022-11-15T22:12:52.143Z,2.47
2022-11-15T22:15:27.841Z,2.77
2022-11-15T22:18:02.516Z,2.30
2022-11-15T22:20:48.011Z,2.43
2022-11-15T22:23:17.912Z,2.43
2022-11-15T22:25:47.786Z,2.33
2022-11-15T22:28:17.657Z,2.20
2022-11-15T22:30:53.688Z,2.30
2022-11-15T22:33:26.740Z,2.30
2022-11-15T22:35:57.438Z,2.13
2022-11-15T22:38:27.492Z,2.67
2022-11-15T22:40:59.472Z,2.23
2022-11-15T22:43:30.094Z,3.20
2022-11-15T22:46:06.833Z,2.50
2022-11-15T22:48:39.003Z,2.80
2022-11-15T22:51:09.916Z,2.40
2022-11-15T22:53:39.949Z,2.00
2022-11-15T22:56:10.416Z,2.20
2022-11-15T22:58:40.240Z,2.13
2022-11-15T23:01:23.529Z,2.17
2022-11-15T23:03:54.531Z,2.23
2022-11-15T23:06:25.537Z,2.50
2022-11-15T23:08:56.522Z,2.43
2022-11-15T23:11:39.855Z,1.93
2022-11-15T23:14:10.938Z,2.47
2022-11-15T23:16:43.401Z,2.47
2022-11-15T23:19:15.342Z,2.43
2022-11-15T23:21:59.492Z,2.73
2022-11-15T23:24:29.922Z,2.60
2022-11-15T23:27:02.165Z,2.83
2022-11-15T23:29:53.578Z,2.83
2022-11-15T23:32:39.616Z,2.47
2022-11-15T23:35:10.282Z,2.40
2022-11-15T23:37:43.666Z,2.60
2022-11-15T23:40:15.461Z,2.50
2022-11-15T23:42:48.457Z,2.40
2022-11-15T23:45:18.478Z,2.67
2022-11-15T23:47:54.697Z,3.20
2022-11-15T23:50:28.334Z,2.37
2022-11-15T23:52:58.254Z,2.50
2022-11-15T23:55:30.223Z,2.63
2022-11-15T23:58:02.242Z,2.57
